createdAt,value
2023-03-15T00:00:49.143Z,13.50
2023-03-15T00:03:36.096Z,13.50
2023-03-15T00:06:16.117Z,13.50
2023-03-15T00:09:03.057Z,13.50
2023-03-15T00:11:50.082Z,13.50
2023-03-15T00:14:38.064Z,13.50
2023-03-15T00:17:18.114Z,13.50
2023-03-15T00:20:05.070Z,13.50
2023-03-15T00:22:52.084Z,13.40
2023-03-15T00:25:32.571Z,13.40
2023-03-15T00:28:19.049Z,13.30
2023-03-15T00:31:24.076Z,13.30
2023-03-15T00:34:04.120Z,13.30
2023-03-15T00:36:52.076Z,13.30
2023-03-15T00:39:32.124Z,13.30
2023-03-15T00:42:24.066Z,13.30
2023-03-15T00:45:11.071Z,13.30
2023-03-15T00:47:54.757Z,13.30
2023-03-15T00:50:41.079Z,13.20
2023-03-15T00:53:22.573Z,13.20
2023-03-15T00:56:09.099Z,13.20
2023-03-15T00:58:52.804Z,13.30
2023-03-15T01:01:43.136Z,13.30
2023-03-15T01:04:23.558Z,13.20
2023-03-15T01:07:10.048Z,13.20
2023-03-15T01:09:50.811Z,13.20
2023-03-15T01:12:37.072Z,13.20
2023-03-15T01:15:17.572Z,13.30
2023-03-15T01:18:04.062Z,13.20
2023-03-15T01:20:52.045Z,13.20
2023-03-15T01:23:33.121Z,13.10
2023-03-15T01:26:21.068Z,13.10
2023-03-15T01:29:09.102Z,13.20
2023-03-15T01:31:49.623Z,13.10
2023-03-15T01:34:36.092Z,13.10
2023-03-15T01:37:24.636Z,13.10
2023-03-15T01:40:04.070Z,13.10
2023-03-15T01:43:05.665Z,13.10
2023-03-15T01:46:17.131Z,13.10
2023-03-15T01:49:12.509Z,13.10
2023-03-15T01:52:05.078Z,13.10
2023-03-15T01:55:12.358Z,13.00
2023-03-15T01:58:18.049Z,13.00
2023-03-15T02:00:58.737Z,13.00
2023-03-15T02:03:53.047Z,13.00
2023-03-15T02:06:44.078Z,13.00
2023-03-15T02:09:26.122Z,13.00
2023-03-15T02:12:13.050Z,13.10
2023-03-15T02:14:58.123Z,13.10
2023-03-15T02:17:51.052Z,13.00
2023-03-15T02:21:09.071Z,13.10
2023-03-15T02:24:09.062Z,13.10
2023-03-15T02:26:53.227Z,13.10
2023-03-15T02:29:40.077Z,13.10
2023-03-15T02:32:20.113Z,13.00
2023-03-15T02:35:07.083Z,13.10
2023-03-15T02:37:47.114Z,13.10
2023-03-15T02:40:36.084Z,13.10
2023-03-15T02:43:22.110Z,13.10
2023-03-15T02:46:10.171Z,13.10
2023-03-15T02:48:54.069Z,13.10
2023-03-15T02:51:41.053Z,13.10
2023-03-15T02:54:28.090Z,13.00
2023-03-15T02:57:12.342Z,13.10
2023-03-15T03:00:01.075Z,13.00
2023-03-15T03:02:55.061Z,13.10
2023-03-15T03:05:35.147Z,13.00
2023-03-15T03:08:23.079Z,13.10
2023-03-15T03:11:04.107Z,13.00
2023-03-15T03:13:51.084Z,13.10
2023-03-15T03:16:39.137Z,13.00
2023-03-15T03:19:26.187Z,13.00
2023-03-15T03:22:07.067Z,13.00
2023-03-15T03:24:48.566Z,13.00
2023-03-15T03:27:35.098Z,13.00
2023-03-15T03:30:16.646Z,13.00
2023-03-15T03:33:05.077Z,13.00
2023-03-15T03:35:45.733Z,13.00
2023-03-15T03:38:32.079Z,12.90
2023-03-15T03:41:12.916Z,13.00
2023-03-15T03:43:59.058Z,13.00
2023-03-15T03:46:39.622Z,13.00
2023-03-15T03:49:27.050Z,13.00
2023-03-15T03:52:07.561Z,13.00
2023-03-15T03:54:54.058Z,13.00
2023-03-15T03:57:41.177Z,13.10
2023-03-15T04:00:31.059Z,13.00
2023-03-15T04:03:19.111Z,13.00
2023-03-15T04:06:02.060Z,13.00
2023-03-15T04:08:46.558Z,13.00
2023-03-15T04:11:39.085Z,13.00
2023-03-15T04:14:26.121Z,13.00
2023-03-15T04:17:20.069Z,13.00
2023-03-15T04:20:12.067Z,13.00
2023-03-15T04:22:59.054Z,13.00
2023-03-15T04:25:55.263Z,13.10
2023-03-15T04:28:54.052Z,13.10
2023-03-15T04:32:09.067Z,13.10
2023-03-15T04:35:06.069Z,13.10
2023-03-15T04:38:06.629Z,13.10
2023-03-15T04:41:04.060Z,13.10
2023-03-15T04:44:12.103Z,13.10
2023-03-15T04:47:04.254Z,13.10
2023-03-15T04:50:09.077Z,13.10
2023-03-15T04:53:07.057Z,13.00
2023-03-15T04:55:58.571Z,13.00
2023-03-15T04:59:17.078Z,13.00
2023-03-15T05:02:22.091Z,13.00
2023-03-15T05:05:11.146Z,13.00
2023-03-15T05:08:24.066Z,13.00
2023-03-15T05:11:18.134Z,13.00
2023-03-15T05:14:43.118Z,13.00
2023-03-15T05:18:06.071Z,13.00
2023-03-15T05:21:03.068Z,13.00
2023-03-15T05:24:19.136Z,13.00
2023-03-15T05:27:08.057Z,12.90
2023-03-15T05:30:12.143Z,12.90
2023-03-15T05:33:34.071Z,12.90
2023-03-15T05:36:45.082Z,12.90
2023-03-15T05:39:44.067Z,13.00
2023-03-15T05:42:51.076Z,12.90
2023-03-15T05:45:51.717Z,13.00
2023-03-15T05:48:57.109Z,13.00
2023-03-15T05:51:45.579Z,13.00
2023-03-15T05:54:50.078Z,13.10
2023-03-15T05:57:56.544Z,13.10
2023-03-15T06:01:02.054Z,13.10
2023-03-15T06:04:08.113Z,13.10
2023-03-15T06:06:48.117Z,13.20
2023-03-15T06:09:35.066Z,13.20
2023-03-15T06:12:22.064Z,13.20
2023-03-15T06:15:09.079Z,13.20
2023-03-15T06:18:03.086Z,13.20
2023-03-15T06:20:51.196Z,13.20
2023-03-15T06:23:31.085Z,13.20
2023-03-15T06:26:18.067Z,13.20
2023-03-15T06:29:02.171Z,13.20
2023-03-15T06:31:49.052Z,13.30
2023-03-15T06:34:31.133Z,13.30
2023-03-15T06:37:32.885Z,13.30
2023-03-15T06:40:15.747Z,13.40
2023-03-15T06:43:03.067Z,13.50
2023-03-15T06:45:44.039Z,13.60
2023-03-15T06:48:31.069Z,13.70
2023-03-15T06:51:18.339Z,13.80
2023-03-15T06:53:58.090Z,14.00
2023-03-15T06:56:47.059Z,14.10
2023-03-15T06:59:34.052Z,14.20
2023-03-15T07:02:23.130Z,14.30
2023-03-15T07:05:10.083Z,14.40
2023-03-15T07:07:50.571Z,14.60
2023-03-15T07:10:37.083Z,14.70
2023-03-15T07:13:25.096Z,15.00
2023-03-15T07:16:05.209Z,15.20
2023-03-15T07:18:52.062Z,15.50
2023-03-15T07:21:40.100Z,15.90
2023-03-15T07:24:28.319Z,16.30
2023-03-15T07:27:08.105Z,16.60
2023-03-15T07:29:48.776Z,16.80
2023-03-15T07:32:35.208Z,17.10
2023-03-15T07:35:15.260Z,17.40
2023-03-15T07:38:02.065Z,17.90
2023-03-15T07:40:49.172Z,18.20
2023-03-15T07:43:29.066Z,18.60
2023-03-15T07:46:25.087Z,18.90
2023-03-15T07:49:12.061Z,19.20
2023-03-15T07:51:52.641Z,19.50
2023-03-15T07:54:41.068Z,19.90
2023-03-15T07:57:21.741Z,20.20
2023-03-15T08:00:08.078Z,20.60
2023-03-15T08:02:49.118Z,20.90
2023-03-15T08:05:36.066Z,21.20
2023-03-15T08:08:24.071Z,21.40
2023-03-15T08:11:04.188Z,21.70
2023-03-15T08:13:51.067Z,22.00
2023-03-15T08:16:38.155Z,22.10
2023-03-15T08:19:25.155Z,22.40
2023-03-15T08:22:05.078Z,22.50
2023-03-15T08:24:45.945Z,22.70
2023-03-15T08:27:33.074Z,22.80
2023-03-15T08:30:14.843Z,23.10
2023-03-15T08:33:02.164Z,23.10
2023-03-15T08:35:42.604Z,23.30
2023-03-15T08:38:29.081Z,23.50
2023-03-15T08:41:16.232Z,23.70
2023-03-15T08:43:56.099Z,23.80
2023-03-15T08:46:43.242Z,24.10
2023-03-15T08:49:23.076Z,24.10
2023-03-15T08:52:03.770Z,24.30
2023-03-15T08:54:50.074Z,24.50
2023-03-15T08:57:32.820Z,24.70
2023-03-15T09:00:27.087Z,24.70
2023-03-15T09:03:14.063Z,24.80
2023-03-15T09:06:02.094Z,24.90
2023-03-15T09:08:49.140Z,25.10
2023-03-15T09:11:30.082Z,25.10
2023-03-15T09:14:10.576Z,25.30
2023-03-15T09:16:57.136Z,25.30
2023-03-15T09:19:51.121Z,25.40
2023-03-15T09:22:39.707Z,25.40
2023-03-15T09:25:19.202Z,25.50
2023-03-15T09:28:06.089Z,25.70
2023-03-15T09:30:48.169Z,25.70
2023-03-15T09:33:35.100Z,25.80
2023-03-15T09:36:15.206Z,25.80
2023-03-15T09:39:02.096Z,26.00
2023-03-15T09:41:45.187Z,25.90
2023-03-15T09:44:49.107Z,26.00
2023-03-15T09:47:45.219Z,26.00
2023-03-15T09:50:49.104Z,26.20
2023-03-15T09:53:40.474Z,26.20
2023-03-15T09:56:33.117Z,26.30
2023-03-15T09:59:20.105Z,26.30
2023-03-15T10:02:17.096Z,26.50
2023-03-15T10:05:04.165Z,26.50
2023-03-15T10:07:51.104Z,26.60
2023-03-15T10:10:51.105Z,26.60
2023-03-15T10:14:06.141Z,26.60
2023-03-15T10:16:51.012Z,26.60
2023-03-15T10:20:03.102Z,26.70
2023-03-15T10:23:10.121Z,26.60
2023-03-15T10:25:59.104Z,26.70
2023-03-15T10:28:40.093Z,26.40
2023-03-15T10:31:41.346Z,26.30
2023-03-15T10:34:33.126Z,26.40
2023-03-15T10:37:16.231Z,26.40
2023-03-15T10:40:05.099Z,26.50
2023-03-15T10:42:52.116Z,26.50
2023-03-15T10:45:40.123Z,26.60
2023-03-15T10:48:20.188Z,26.60
2023-03-15T10:51:22.114Z,26.80
2023-03-15T10:54:18.120Z,26.60
2023-03-15T10:57:12.111Z,26.70
2023-03-15T11:00:14.101Z,26.70
2023-03-15T11:03:03.982Z,26.70
2023-03-15T11:05:58.105Z,26.70
2023-03-15T11:08:48.137Z,26.70
2023-03-15T11:11:35.137Z,26.60
2023-03-15T11:14:22.203Z,26.30
2023-03-15T11:17:05.117Z,25.70
2023-03-15T11:20:24.111Z,25.40
2023-03-15T11:23:17.720Z,24.90
2023-03-15T11:26:04.122Z,24.50
2023-03-15T11:28:59.855Z,24.30
2023-03-15T11:31:47.134Z,24.00
2023-03-15T11:34:49.129Z,23.80
2023-03-15T11:37:42.116Z,23.60
2023-03-15T11:40:35.146Z,23.50
2023-03-15T11:43:33.146Z,23.30
2023-03-15T11:46:30.829Z,23.20
2023-03-15T11:49:56.125Z,23.10
2023-03-15T11:52:43.138Z,22.90
2023-03-15T11:55:31.191Z,22.80
2023-03-15T11:58:49.117Z,22.60
2023-03-15T12:01:33.201Z,22.60
2023-03-15T12:04:44.170Z,22.50
2023-03-15T12:07:24.427Z,22.40
2023-03-15T12:10:11.136Z,22.30
2023-03-15T12:13:12.131Z,22.20
2023-03-15T12:15:59.281Z,22.10
2023-03-15T12:18:58.146Z,22.10
2023-03-15T12:21:41.641Z,22.00
2023-03-15T12:24:41.128Z,22.20
2023-03-15T12:27:28.194Z,22.30
2023-03-15T12:30:09.136Z,22.50
2023-03-15T12:33:02.210Z,22.70
2023-03-15T12:35:56.171Z,22.70
2023-03-15T12:38:43.129Z,22.80
2023-03-15T12:41:53.143Z,22.80
2023-03-15T12:44:40.111Z,22.90
2023-03-15T12:47:20.204Z,22.90
2023-03-15T12:50:43.133Z,23.00
2023-03-15T12:53:42.162Z,23.00
2023-03-15T12:56:36.159Z,23.00
2023-03-15T12:59:35.205Z,23.00
2023-03-15T13:02:44.593Z,23.00
2023-03-15T13:05:39.204Z,23.10
2023-03-15T13:08:36.127Z,23.10
2023-03-15T13:11:34.266Z,23.10
2023-03-15T13:14:47.154Z,23.10
2023-03-15T13:17:55.220Z,23.10
2023-03-15T13:21:08.141Z,23.10
2023-03-15T13:24:04.150Z,23.00
2023-03-15T13:27:10.156Z,22.90
2023-03-15T13:29:57.615Z,22.90
2023-03-15T13:32:37.172Z,22.70
2023-03-15T13:35:24.226Z,22.70
2023-03-15T13:38:16.157Z,22.50
2023-03-15T13:41:06.152Z,22.50
2023-03-15T13:43:46.208Z,22.50
2023-03-15T13:46:37.240Z,22.40
2023-03-15T13:49:25.133Z,22.40
2023-03-15T13:52:18.147Z,22.30
2023-03-15T13:55:07.152Z,22.20
2023-03-15T13:57:54.654Z,22.20
2023-03-15T14:00:44.143Z,22.10
2023-03-15T14:03:25.399Z,22.10
2023-03-15T14:06:13.160Z,22.00
2023-03-15T14:08:59.726Z,22.00
2023-03-15T14:11:52.150Z,21.90
2023-03-15T14:14:38.481Z,21.90
2023-03-15T14:17:44.158Z,21.80
2023-03-15T14:20:35.262Z,21.70
2023-03-15T14:23:20.188Z,21.70
2023-03-15T14:26:26.864Z,21.60
2023-03-15T14:29:20.180Z,21.60
2023-03-15T14:32:28.231Z,21.60
2023-03-15T14:35:38.341Z,21.50
2023-03-15T14:38:29.159Z,21.50
2023-03-15T14:41:41.149Z,21.40
2023-03-15T14:44:21.826Z,21.40
2023-03-15T14:47:08.187Z,21.30
2023-03-15T14:49:48.670Z,21.30
2023-03-15T14:52:39.156Z,21.30
2023-03-15T14:55:24.434Z,21.30
2023-03-15T14:58:11.166Z,21.20
2023-03-15T15:01:00.289Z,21.20
2023-03-15T15:03:53.164Z,21.20
2023-03-15T15:06:50.476Z,21.20
2023-03-15T15:09:33.174Z,21.10
2023-03-15T15:12:20.219Z,21.10
2023-03-15T15:15:00.195Z,21.00
2023-03-15T15:17:47.301Z,21.10
2023-03-15T15:20:34.164Z,21.00
2023-03-15T15:23:29.238Z,20.90
2023-03-15T15:26:28.160Z,20.90
2023-03-15T15:29:15.189Z,20.90
2023-03-15T15:32:02.236Z,20.80
2023-03-15T15:34:43.299Z,20.70
2023-03-15T15:37:30.331Z,20.60
2023-03-15T15:40:14.212Z,20.50
2023-03-15T15:43:01.171Z,20.50
2023-03-15T15:45:48.185Z,20.40
2023-03-15T15:48:28.672Z,20.30
2023-03-15T15:51:15.168Z,20.20
2023-03-15T15:53:58.858Z,20.10
2023-03-15T15:56:53.178Z,20.10
2023-03-15T15:59:40.152Z,20.00
2023-03-15T16:02:24.324Z,19.80
2023-03-15T16:05:11.343Z,19.80
2023-03-15T16:07:51.219Z,19.60
2023-03-15T16:10:38.166Z,19.50
2023-03-15T16:13:19.277Z,19.40
2023-03-15T16:16:22.176Z,19.40
2023-03-15T16:19:16.144Z,19.30
2023-03-15T16:22:03.170Z,19.20
2023-03-15T16:24:45.387Z,19.10
2023-03-15T16:27:34.183Z,19.00
2023-03-15T16:30:24.238Z,18.90
2023-03-15T16:33:21.232Z,18.90
2023-03-15T16:36:01.262Z,18.80
2023-03-15T16:38:48.159Z,18.70
2023-03-15T16:41:28.286Z,18.70
2023-03-15T16:44:24.162Z,18.60
2023-03-15T16:47:11.185Z,18.50
2023-03-15T16:49:58.170Z,18.50
2023-03-15T16:52:46.187Z,18.40
2023-03-15T16:55:29.377Z,18.30
2023-03-15T16:58:25.159Z,18.30
2023-03-15T17:01:08.340Z,18.20
2023-03-15T17:03:55.185Z,18.10
2023-03-15T17:06:42.208Z,18.10
2023-03-15T17:09:26.274Z,18.00
2023-03-15T17:12:16.210Z,18.00
2023-03-15T17:15:04.184Z,17.90
2023-03-15T17:17:51.182Z,17.90
2023-03-15T17:20:32.234Z,17.80
2023-03-15T17:23:19.174Z,17.80
2023-03-15T17:26:06.206Z,17.80
2023-03-15T17:28:47.703Z,17.70
2023-03-15T17:31:35.211Z,17.70
2023-03-15T17:34:15.827Z,17.60
2023-03-15T17:37:02.192Z,17.60
2023-03-15T17:39:44.777Z,17.50
2023-03-15T17:42:32.185Z,17.50
2023-03-15T17:45:30.286Z,17.40
2023-03-15T17:48:17.191Z,17.40
2023-03-15T17:51:05.605Z,17.30
2023-03-15T17:53:45.209Z,17.30
2023-03-15T17:56:36.181Z,17.20
2023-03-15T17:59:20.239Z,17.20
2023-03-15T18:02:07.174Z,17.20
2023-03-15T18:04:54.272Z,17.20
2023-03-15T18:07:48.834Z,17.10
2023-03-15T18:10:45.199Z,17.10
2023-03-15T18:13:27.022Z,17.10
2023-03-15T18:16:13.249Z,17.10
2023-03-15T18:18:53.666Z,17.00
2023-03-15T18:21:41.215Z,17.00
2023-03-15T18:24:21.711Z,17.00
2023-03-15T18:27:08.208Z,17.00
2023-03-15T18:29:48.349Z,16.90
2023-03-15T18:32:35.232Z,16.90
2023-03-15T18:35:23.187Z,16.90
2023-03-15T18:38:04.249Z,16.80
2023-03-15T18:40:51.170Z,16.80
2023-03-15T18:43:31.357Z,16.80
2023-03-15T18:46:18.249Z,16.80
2023-03-15T18:48:58.947Z,16.70
2023-03-15T18:51:45.198Z,16.70
2023-03-15T18:54:32.224Z,16.70
2023-03-15T18:57:13.202Z,16.60
2023-03-15T18:59:53.815Z,16.60
2023-03-15T19:02:40.232Z,16.60
2023-03-15T19:05:20.496Z,16.50
2023-03-15T19:08:07.183Z,16.50
2023-03-15T19:10:47.327Z,16.40
2023-03-15T19:13:34.183Z,16.40
2023-03-15T19:16:14.343Z,16.40
2023-03-15T19:19:02.176Z,16.30
2023-03-15T19:21:49.261Z,16.30
2023-03-15T19:24:29.195Z,16.30
2023-03-15T19:27:17.785Z,16.20
2023-03-15T19:29:57.181Z,16.20
2023-03-15T19:32:45.670Z,16.20
2023-03-15T19:35:27.178Z,16.10
2023-03-15T19:38:14.240Z,16.10
2023-03-15T19:40:54.180Z,16.10
2023-03-15T19:43:43.260Z,16.10
2023-03-15T19:46:24.272Z,16.10
2023-03-15T19:49:11.191Z,16.00
2023-03-15T19:51:58.180Z,16.00
2023-03-15T19:54:47.003Z,16.00
2023-03-15T19:57:26.194Z,16.00
2023-03-15T20:00:12.482Z,15.90
2023-03-15T20:02:59.194Z,15.90
2023-03-15T20:05:46.180Z,15.80
2023-03-15T20:08:33.234Z,15.80
2023-03-15T20:11:24.890Z,15.80
2023-03-15T20:14:04.213Z,15.80
2023-03-15T20:16:51.246Z,15.70
2023-03-15T20:19:45.204Z,15.70
2023-03-15T20:22:32.196Z,15.70
2023-03-15T20:25:12.244Z,15.60
2023-03-15T20:27:59.228Z,15.60
2023-03-15T20:30:39.452Z,15.60
2023-03-15T20:33:26.197Z,15.60
2023-03-15T20:36:06.428Z,15.50
2023-03-15T20:38:53.190Z,15.50
2023-03-15T20:41:40.198Z,15.50
2023-03-15T20:44:20.569Z,15.40
2023-03-15T20:47:07.213Z,15.40
2023-03-15T20:49:54.201Z,15.40
2023-03-15T20:52:41.186Z,15.40
2023-03-15T20:55:28.212Z,15.30
2023-03-15T20:58:08.334Z,15.30
2023-03-15T21:00:55.212Z,15.30
2023-03-15T21:03:35.532Z,15.20
2023-03-15T21:06:22.210Z,15.20
2023-03-15T21:09:09.185Z,15.20
2023-03-15T21:11:50.003Z,15.20
2023-03-15T21:14:36.194Z,15.30
2023-03-15T21:17:23.181Z,15.40
2023-03-15T21:20:07.204Z,15.40
2023-03-15T21:22:54.181Z,15.40
2023-03-15T21:25:41.198Z,15.50
2023-03-15T21:28:29.188Z,15.50
2023-03-15T21:31:16.212Z,15.50
2023-03-15T21:34:03.189Z,15.50
2023-03-15T21:36:50.181Z,15.50
2023-03-15T21:39:38.349Z,15.50
2023-03-15T21:42:21.181Z,15.50
2023-03-15T21:45:01.738Z,15.40
2023-03-15T21:47:48.184Z,15.40
2023-03-15T21:50:28.316Z,15.40
2023-03-15T21:53:15.208Z,15.40
2023-03-15T21:56:02.193Z,15.40
2023-03-15T21:58:42.287Z,15.30
2023-03-15T22:01:29.194Z,15.30
2023-03-15T22:04:09.335Z,15.30
2023-03-15T22:06:57.193Z,15.30
2023-03-15T22:09:38.031Z,15.30
2023-03-15T22:12:25.199Z,15.20
2023-03-15T22:15:06.155Z,15.20
2023-03-15T22:17:53.197Z,15.20
2023-03-15T22:20:33.693Z,15.20
2023-03-15T22:23:20.172Z,15.10
2023-03-15T22:26:07.186Z,15.20
2023-03-15T22:28:54.230Z,15.20
2023-03-15T22:31:38.181Z,15.20
2023-03-15T22:34:25.179Z,15.30
2023-03-15T22:37:12.189Z,15.30
2023-03-15T22:39:59.190Z,15.30
2023-03-15T22:42:46.186Z,15.30
2023-03-15T22:45:26.760Z,15.30
2023-03-15T22:48:13.201Z,15.30
2023-03-15T22:51:01.736Z,15.30
2023-03-15T22:53:48.174Z,15.30
2023-03-15T22:56:35.175Z,15.30
2023-03-15T22:59:15.248Z,15.30
2023-03-15T23:02:03.196Z,15.30
2023-03-15T23:04:45.185Z,15.30
2023-03-15T23:07:32.202Z,15.20
2023-03-15T23:10:13.273Z,15.20
2023-03-15T23:13:00.206Z,15.20
2023-03-15T23:15:40.314Z,15.20
2023-03-15T23:18:28.190Z,15.20
2023-03-15T23:21:16.276Z,15.10
2023-03-15T23:24:03.201Z,15.10
2023-03-15T23:26:43.274Z,15.10
2023-03-15T23:29:31.372Z,15.10
2023-03-15T23:32:11.632Z,15.00
2023-03-15T23:35:00.183Z,15.10
2023-03-15T23:37:40.259Z,15.10
2023-03-15T23:40:27.554Z,15.10
2023-03-15T23:43:09.248Z,15.00
2023-03-15T23:46:02.207Z,15.00
2023-03-15T23:48:42.267Z,15.00
2023-03-15T23:51:30.198Z,15.00
2023-03-15T23:54:10.253Z,15.00
2023-03-15T23:56:57.209Z,14.90
2023-03-15T23:59:37.296Z,15.00
